sensor_id;sensor_type;location;lat;lon;timestamp;temperature;humidity
13721;DHT22;6932;51.438;5.470;2022-12-18T00:01:21;5.70;71.90
13721;DHT22;6932;51.438;5.470;2022-12-18T00:03:53;5.70;71.80
13721;DHT22;6932;51.438;5.470;2022-12-18T00:06:21;5.70;71.80
13721;DHT22;6932;51.438;5.470;2022-12-18T00:08:48;5.70;71.80
13721;DHT22;6932;51.438;5.470;2022-12-18T00:11:16;5.60;71.80
13721;DHT22;6932;51.438;5.470;2022-12-18T00:13:44;5.60;71.70
13721;DHT22;6932;51.438;5.470;2022-12-18T00:16:13;5.60;71.80
13721;DHT22;6932;51.438;5.470;2022-12-18T00:18:41;5.60;71.70
13721;DHT22;6932;51.438;5.470;2022-12-18T00:21:09;5.60;71.70
13721;DHT22;6932;51.438;5.470;2022-12-18T00:23:37;5.60;71.80
13721;DHT22;6932;51.438;5.470;2022-12-18T00:26:07;5.60;71.90
13721;DHT22;6932;51.438;5.470;2022-12-18T00:28:35;5.60;71.80
13721;DHT22;6932;51.438;5.470;2022-12-18T00:31:06;5.60;71.80
13721;DHT22;6932;51.438;5.470;2022-12-18T00:33:36;5.60;71.70
13721;DHT22;6932;51.438;5.470;2022-12-18T00:36:07;5.60;71.60
13721;DHT22;6932;51.438;5.470;2022-12-18T00:38:36;5.60;71.60
13721;DHT22;6932;51.438;5.470;2022-12-18T00:41:02;5.60;71.60
13721;DHT22;6932;51.438;5.470;2022-12-18T00:43:29;5.70;71.50
13721;DHT22;6932;51.438;5.470;2022-12-18T00:45:54;5.60;71.40
13721;DHT22;6932;51.438;5.470;2022-12-18T00:48:20;5.60;71.30
13721;DHT22;6932;51.438;5.470;2022-12-18T00:50:48;5.60;71.20
13721;DHT22;6932;51.438;5.470;2022-12-18T00:53:14;5.60;71.20
13721;DHT22;6932;51.438;5.470;2022-12-18T00:55:41;5.60;71.20
13721;DHT22;6932;51.438;5.470;2022-12-18T00:58:08;5.60;71.10
13721;DHT22;6932;51.438;5.470;2022-12-18T01:00:34;5.60;71.10
13721;DHT22;6932;51.438;5.470;2022-12-18T01:03:01;5.60;71.10
13721;DHT22;6932;51.438;5.470;2022-12-18T01:05:27;5.60;71.00
13721;DHT22;6932;51.438;5.470;2022-12-18T01:07:53;5.60;71.00
13721;DHT22;6932;51.438;5.470;2022-12-18T01:10:19;5.60;71.00
13721;DHT22;6932;51.438;5.470;2022-12-18T01:12:45;5.60;70.90
13721;DHT22;6932;51.438;5.470;2022-12-18T01:15:13;5.60;70.80
13721;DHT22;6932;51.438;5.470;2022-12-18T01:17:40;5.60;70.70
13721;DHT22;6932;51.438;5.470;2022-12-18T01:20:06;5.60;70.70
13721;DHT22;6932;51.438;5.470;2022-12-18T01:22:34;5.60;70.60
13721;DHT22;6932;51.438;5.470;2022-12-18T01:25:00;5.50;70.50
13721;DHT22;6932;51.438;5.470;2022-12-18T01:27:26;5.50;70.60
13721;DHT22;6932;51.438;5.470;2022-12-18T01:29:52;5.50;70.50
13721;DHT22;6932;51.438;5.470;2022-12-18T01:32:18;5.50;70.50
13721;DHT22;6932;51.438;5.470;2022-12-18T01:34:45;5.50;70.40
13721;DHT22;6932;51.438;5.470;2022-12-18T01:37:10;5.50;70.30
13721;DHT22;6932;51.438;5.470;2022-12-18T01:39:36;5.40;70.30
13721;DHT22;6932;51.438;5.470;2022-12-18T01:42:09;5.40;70.20
13721;DHT22;6932;51.438;5.470;2022-12-18T01:53:02;5.30;70.80
13721;DHT22;6932;51.438;5.470;2022-12-18T01:55:50;5.40;70.20
13721;DHT22;6932;51.438;5.470;2022-12-18T01:58:19;5.30;70.10
13721;DHT22;6932;51.438;5.470;2022-12-18T02:00:48;5.30;70.20
13721;DHT22;6932;51.438;5.470;2022-12-18T02:03:14;5.30;70.10
13721;DHT22;6932;51.438;5.470;2022-12-18T02:05:52;5.30;70.00
13721;DHT22;6932;51.438;5.470;2022-12-18T02:17:07;5.20;69.90
13721;DHT22;6932;51.438;5.470;2022-12-18T02:20:04;5.20;69.80
13721;DHT22;6932;51.438;5.470;2022-12-18T02:26:14;5.20;69.80
13721;DHT22;6932;51.438;5.470;2022-12-18T02:29:21;5.20;69.60
13721;DHT22;6932;51.438;5.470;2022-12-18T02:32:18;5.20;69.60
13721;DHT22;6932;51.438;5.470;2022-12-18T02:34:51;5.10;69.60
13721;DHT22;6932;51.438;5.470;2022-12-18T02:37:21;5.10;69.60
13721;DHT22;6932;51.438;5.470;2022-12-18T02:39:49;5.10;69.60
13721;DHT22;6932;51.438;5.470;2022-12-18T02:42:18;5.10;69.60
13721;DHT22;6932;51.438;5.470;2022-12-18T02:44:47;5.10;69.60
13721;DHT22;6932;51.438;5.470;2022-12-18T02:47:17;5.10;69.60
13721;DHT22;6932;51.438;5.470;2022-12-18T02:53:23;5.10;69.50
13721;DHT22;6932;51.438;5.470;2022-12-18T02:58:54;5.00;69.40
13721;DHT22;6932;51.438;5.470;2022-12-18T03:07:02;5.00;69.30
13721;DHT22;6932;51.438;5.470;2022-12-18T03:09:43;5.00;69.30
13721;DHT22;6932;51.438;5.470;2022-12-18T03:12:20;5.00;69.30
13721;DHT22;6932;51.438;5.470;2022-12-18T03:14:57;5.00;69.30
13721;DHT22;6932;51.438;5.470;2022-12-18T03:17:31;5.00;69.20
13721;DHT22;6932;51.438;5.470;2022-12-18T03:20:05;5.00;69.20
13721;DHT22;6932;51.438;5.470;2022-12-18T03:22:37;5.00;69.20
13721;DHT22;6932;51.438;5.470;2022-12-18T03:25:06;5.00;69.10
13721;DHT22;6932;51.438;5.470;2022-12-18T03:27:36;5.00;69.10
13721;DHT22;6932;51.438;5.470;2022-12-18T03:30:08;5.00;69.10
13721;DHT22;6932;51.438;5.470;2022-12-18T03:33:18;4.90;69.00
13721;DHT22;6932;51.438;5.470;2022-12-18T03:35:41;5.00;69.00
13721;DHT22;6932;51.438;5.470;2022-12-18T03:38:09;4.90;69.00
13721;DHT22;6932;51.438;5.470;2022-12-18T03:40:59;4.90;68.90
13721;DHT22;6932;51.438;5.470;2022-12-18T03:46:43;4.90;68.90
13721;DHT22;6932;51.438;5.470;2022-12-18T03:52:39;4.90;68.90
13721;DHT22;6932;51.438;5.470;2022-12-18T03:55:12;4.90;68.90
13721;DHT22;6932;51.438;5.470;2022-12-18T03:57:38;4.90;68.90
13721;DHT22;6932;51.438;5.470;2022-12-18T04:00:09;4.90;68.90
13721;DHT22;6932;51.438;5.470;2022-12-18T04:02:39;4.90;68.90
13721;DHT22;6932;51.438;5.470;2022-12-18T04:05:10;4.90;68.80
13721;DHT22;6932;51.438;5.470;2022-12-18T04:07:39;4.90;68.70
13721;DHT22;6932;51.438;5.470;2022-12-18T04:10:07;4.90;68.70
13721;DHT22;6932;51.438;5.470;2022-12-18T04:12:42;4.90;68.60
13721;DHT22;6932;51.438;5.470;2022-12-18T04:15:09;4.90;69.30
13721;DHT22;6932;51.438;5.470;2022-12-18T04:17:37;4.90;68.50
13721;DHT22;6932;51.438;5.470;2022-12-18T04:20:04;4.80;68.40
13721;DHT22;6932;51.438;5.470;2022-12-18T04:22:30;4.80;68.30
13721;DHT22;6932;51.438;5.470;2022-12-18T04:24:56;4.80;68.30
13721;DHT22;6932;51.438;5.470;2022-12-18T04:27:22;4.80;68.30
13721;DHT22;6932;51.438;5.470;2022-12-18T04:29:47;4.80;68.30
13721;DHT22;6932;51.438;5.470;2022-12-18T04:32:13;4.80;68.30
13721;DHT22;6932;51.438;5.470;2022-12-18T04:34:39;4.80;68.30
13721;DHT22;6932;51.438;5.470;2022-12-18T04:37:05;4.80;68.30
13721;DHT22;6932;51.438;5.470;2022-12-18T04:39:30;4.80;68.30
13721;DHT22;6932;51.438;5.470;2022-12-18T04:41:59;4.70;68.20
13721;DHT22;6932;51.438;5.470;2022-12-18T04:44:25;4.70;68.30
13721;DHT22;6932;51.438;5.470;2022-12-18T04:46:50;4.70;68.20
13721;DHT22;6932;51.438;5.470;2022-12-18T04:49:16;4.70;68.20
13721;DHT22;6932;51.438;5.470;2022-12-18T04:51:42;4.70;68.30
13721;DHT22;6932;51.438;5.470;2022-12-18T04:54:08;4.70;68.20
13721;DHT22;6932;51.438;5.470;2022-12-18T04:56:33;4.70;68.20
13721;DHT22;6932;51.438;5.470;2022-12-18T04:58:59;4.70;68.10
13721;DHT22;6932;51.438;5.470;2022-12-18T05:01:25;4.70;68.20
13721;DHT22;6932;51.438;5.470;2022-12-18T05:03:51;4.70;68.20
13721;DHT22;6932;51.438;5.470;2022-12-18T05:06:17;4.70;68.10
13721;DHT22;6932;51.438;5.470;2022-12-18T05:08:43;4.70;68.00
13721;DHT22;6932;51.438;5.470;2022-12-18T05:11:11;4.70;68.00
13721;DHT22;6932;51.438;5.470;2022-12-18T05:13:41;4.70;68.00
13721;DHT22;6932;51.438;5.470;2022-12-18T05:16:08;4.70;68.00
13721;DHT22;6932;51.438;5.470;2022-12-18T05:18:35;4.70;68.00
13721;DHT22;6932;51.438;5.470;2022-12-18T05:21:01;4.70;68.00
13721;DHT22;6932;51.438;5.470;2022-12-18T05:23:27;4.70;68.00
13721;DHT22;6932;51.438;5.470;2022-12-18T05:25:59;4.70;68.20
13721;DHT22;6932;51.438;5.470;2022-12-18T05:28:29;4.70;68.40
13721;DHT22;6932;51.438;5.470;2022-12-18T05:30:57;4.80;68.50
13721;DHT22;6932;51.438;5.470;2022-12-18T05:33:26;4.80;68.20
13721;DHT22;6932;51.438;5.470;2022-12-18T05:35:57;4.90;68.00
13721;DHT22;6932;51.438;5.470;2022-12-18T05:38:28;4.90;67.80
13721;DHT22;6932;51.438;5.470;2022-12-18T05:40:54;4.90;67.60
13721;DHT22;6932;51.438;5.470;2022-12-18T05:43:21;4.90;67.50
13721;DHT22;6932;51.438;5.470;2022-12-18T05:45:50;4.90;67.50
13721;DHT22;6932;51.438;5.470;2022-12-18T05:48:17;4.90;67.60
13721;DHT22;6932;51.438;5.470;2022-12-18T05:50:45;4.80;67.60
13721;DHT22;6932;51.438;5.470;2022-12-18T05:53:14;4.80;67.50
13721;DHT22;6932;51.438;5.470;2022-12-18T05:55:42;4.90;67.60
13721;DHT22;6932;51.438;5.470;2022-12-18T05:58:10;4.80;67.60
13721;DHT22;6932;51.438;5.470;2022-12-18T06:00:40;4.80;67.60
13721;DHT22;6932;51.438;5.470;2022-12-18T06:03:10;4.80;67.60
13721;DHT22;6932;51.438;5.470;2022-12-18T06:05:39;4.80;67.60
13721;DHT22;6932;51.438;5.470;2022-12-18T06:08:07;4.80;67.60
13721;DHT22;6932;51.438;5.470;2022-12-18T06:10:34;4.80;67.60
13721;DHT22;6932;51.438;5.470;2022-12-18T06:13:00;4.80;67.70
13721;DHT22;6932;51.438;5.470;2022-12-18T06:15:26;4.80;67.80
13721;DHT22;6932;51.438;5.470;2022-12-18T06:17:52;4.80;67.80
13721;DHT22;6932;51.438;5.470;2022-12-18T06:20:18;4.80;67.70
13721;DHT22;6932;51.438;5.470;2022-12-18T06:22:44;4.80;67.70
13721;DHT22;6932;51.438;5.470;2022-12-18T06:25:10;4.80;67.70
13721;DHT22;6932;51.438;5.470;2022-12-18T06:27:36;4.80;67.70
13721;DHT22;6932;51.438;5.470;2022-12-18T06:30:02;4.80;67.60
13721;DHT22;6932;51.438;5.470;2022-12-18T06:32:29;4.80;67.60
13721;DHT22;6932;51.438;5.470;2022-12-18T06:34:54;4.80;67.70
13721;DHT22;6932;51.438;5.470;2022-12-18T06:37:21;4.80;67.60
13721;DHT22;6932;51.438;5.470;2022-12-18T06:39:51;4.80;67.60
13721;DHT22;6932;51.438;5.470;2022-12-18T06:42:18;4.80;67.70
13721;DHT22;6932;51.438;5.470;2022-12-18T06:44:46;4.80;67.70
13721;DHT22;6932;51.438;5.470;2022-12-18T06:47:12;4.90;67.60
13721;DHT22;6932;51.438;5.470;2022-12-18T06:49:38;4.80;67.40
13721;DHT22;6932;51.438;5.470;2022-12-18T06:52:03;4.80;67.40
13721;DHT22;6932;51.438;5.470;2022-12-18T06:54:29;4.80;67.40
13721;DHT22;6932;51.438;5.470;2022-12-18T06:56:55;4.80;67.40
13721;DHT22;6932;51.438;5.470;2022-12-18T06:59:20;4.80;67.40
13721;DHT22;6932;51.438;5.470;2022-12-18T07:01:46;4.80;67.60
13721;DHT22;6932;51.438;5.470;2022-12-18T07:04:12;4.80;67.60
13721;DHT22;6932;51.438;5.470;2022-12-18T07:06:38;4.90;67.50
13721;DHT22;6932;51.438;5.470;2022-12-18T07:09:03;4.90;67.30
13721;DHT22;6932;51.438;5.470;2022-12-18T07:11:29;4.90;67.40
13721;DHT22;6932;51.438;5.470;2022-12-18T07:13:58;4.90;67.50
13721;DHT22;6932;51.438;5.470;2022-12-18T07:16:24;4.90;67.50
13721;DHT22;6932;51.438;5.470;2022-12-18T07:18:49;4.90;67.30
13721;DHT22;6932;51.438;5.470;2022-12-18T07:21:18;4.90;67.30
13721;DHT22;6932;51.438;5.470;2022-12-18T07:23:45;4.90;67.30
13721;DHT22;6932;51.438;5.470;2022-12-18T07:26:13;4.90;67.40
13721;DHT22;6932;51.438;5.470;2022-12-18T07:28:41;4.90;67.30
13721;DHT22;6932;51.438;5.470;2022-12-18T07:31:11;4.90;67.90
13721;DHT22;6932;51.438;5.470;2022-12-18T07:33:40;4.90;67.20
13721;DHT22;6932;51.438;5.470;2022-12-18T07:36:07;4.90;67.20
13721;DHT22;6932;51.438;5.470;2022-12-18T07:38:34;4.90;67.30
13721;DHT22;6932;51.438;5.470;2022-12-18T07:41:05;4.90;67.20
13721;DHT22;6932;51.438;5.470;2022-12-18T07:43:34;4.90;67.30
13721;DHT22;6932;51.438;5.470;2022-12-18T07:46:00;4.90;67.30
13721;DHT22;6932;51.438;5.470;2022-12-18T07:48:27;4.90;67.90
13721;DHT22;6932;51.438;5.470;2022-12-18T07:50:53;4.90;67.20
13721;DHT22;6932;51.438;5.470;2022-12-18T07:53:19;4.90;67.20
13721;DHT22;6932;51.438;5.470;2022-12-18T07:55:44;4.90;67.20
13721;DHT22;6932;51.438;5.470;2022-12-18T07:58:10;4.90;67.30
13721;DHT22;6932;51.438;5.470;2022-12-18T08:00:36;4.90;67.30
13721;DHT22;6932;51.438;5.470;2022-12-18T08:03:02;4.90;67.40
13721;DHT22;6932;51.438;5.470;2022-12-18T08:05:28;4.90;67.40
13721;DHT22;6932;51.438;5.470;2022-12-18T08:07:54;4.90;67.40
13721;DHT22;6932;51.438;5.470;2022-12-18T08:10:20;4.90;67.50
13721;DHT22;6932;51.438;5.470;2022-12-18T08:12:50;4.90;67.50
13721;DHT22;6932;51.438;5.470;2022-12-18T08:15:17;5.00;67.50
13721;DHT22;6932;51.438;5.470;2022-12-18T08:17:43;5.00;67.50
13721;DHT22;6932;51.438;5.470;2022-12-18T08:20:09;5.00;67.40
13721;DHT22;6932;51.438;5.470;2022-12-18T08:22:35;5.10;67.40
13721;DHT22;6932;51.438;5.470;2022-12-18T08:25:05;5.10;67.30
13721;DHT22;6932;51.438;5.470;2022-12-18T08:27:31;5.10;67.30
13721;DHT22;6932;51.438;5.470;2022-12-18T08:29:57;5.10;67.40
13721;DHT22;6932;51.438;5.470;2022-12-18T08:32:24;5.10;67.50
13721;DHT22;6932;51.438;5.470;2022-12-18T08:34:51;5.10;67.50
13721;DHT22;6932;51.438;5.470;2022-12-18T08:37:17;5.20;67.50
13721;DHT22;6932;51.438;5.470;2022-12-18T08:39:43;5.20;67.60
13721;DHT22;6932;51.438;5.470;2022-12-18T08:42:09;5.20;67.60
13721;DHT22;6932;51.438;5.470;2022-12-18T08:44:54;5.30;67.60
13721;DHT22;6932;51.438;5.470;2022-12-18T08:47:19;5.40;67.60
13721;DHT22;6932;51.438;5.470;2022-12-18T08:49:45;5.40;67.50
13721;DHT22;6932;51.438;5.470;2022-12-18T08:52:11;5.40;67.40
13721;DHT22;6932;51.438;5.470;2022-12-18T08:54:39;5.50;67.30
13721;DHT22;6932;51.438;5.470;2022-12-18T08:57:05;5.40;67.30
13721;DHT22;6932;51.438;5.470;2022-12-18T08:59:32;5.50;67.40
13721;DHT22;6932;51.438;5.470;2022-12-18T09:01:57;5.50;67.40
13721;DHT22;6932;51.438;5.470;2022-12-18T09:04:23;5.50;67.40
13721;DHT22;6932;51.438;5.470;2022-12-18T09:06:49;5.60;67.40
13721;DHT22;6932;51.438;5.470;2022-12-18T09:09:15;5.60;67.40
13721;DHT22;6932;51.438;5.470;2022-12-18T09:11:40;5.70;67.40
13721;DHT22;6932;51.438;5.470;2022-12-18T09:14:06;5.70;67.30
13721;DHT22;6932;51.438;5.470;2022-12-18T09:16:33;5.70;67.20
13721;DHT22;6932;51.438;5.470;2022-12-18T09:19:02;5.70;67.30
13721;DHT22;6932;51.438;5.470;2022-12-18T09:21:31;5.70;67.30
13721;DHT22;6932;51.438;5.470;2022-12-18T09:23:59;5.70;67.30
13721;DHT22;6932;51.438;5.470;2022-12-18T09:26:25;5.80;67.40
13721;DHT22;6932;51.438;5.470;2022-12-18T09:28:52;5.80;67.50
13721;DHT22;6932;51.438;5.470;2022-12-18T09:31:21;5.80;67.50
13721;DHT22;6932;51.438;5.470;2022-12-18T09:33:48;5.80;67.40
13721;DHT22;6932;51.438;5.470;2022-12-18T09:36:16;5.90;67.50
13721;DHT22;6932;51.438;5.470;2022-12-18T09:38:43;5.90;67.60
13721;DHT22;6932;51.438;5.470;2022-12-18T09:47:19;5.90;67.40
13721;DHT22;6932;51.438;5.470;2022-12-18T09:49:53;5.90;67.40
13721;DHT22;6932;51.438;5.470;2022-12-18T09:52:44;5.90;67.40
13721;DHT22;6932;51.438;5.470;2022-12-18T09:55:32;6.00;67.50
13721;DHT22;6932;51.438;5.470;2022-12-18T09:58:50;6.00;67.50
13721;DHT22;6932;51.438;5.470;2022-12-18T10:01:23;6.00;67.60
13721;DHT22;6932;51.438;5.470;2022-12-18T10:03:50;6.00;67.70
13721;DHT22;6932;51.438;5.470;2022-12-18T10:22:57;6.20;67.80
13721;DHT22;6932;51.438;5.470;2022-12-18T10:25:50;6.30;67.90
13721;DHT22;6932;51.438;5.470;2022-12-18T10:28:21;6.30;67.80
13721;DHT22;6932;51.438;5.470;2022-12-18T10:30:47;6.40;67.90
13721;DHT22;6932;51.438;5.470;2022-12-18T10:33:19;6.40;67.90
13721;DHT22;6932;51.438;5.470;2022-12-18T10:35:49;6.40;67.90
13721;DHT22;6932;51.438;5.470;2022-12-18T10:40:57;6.50;68.00
13721;DHT22;6932;51.438;5.470;2022-12-18T10:43:31;6.50;68.00
13721;DHT22;6932;51.438;5.470;2022-12-18T10:51:06;6.60;68.00
13721;DHT22;6932;51.438;5.470;2022-12-18T10:53:34;6.60;68.10
13721;DHT22;6932;51.438;5.470;2022-12-18T10:56:04;6.60;68.10
13721;DHT22;6932;51.438;5.470;2022-12-18T10:58:37;6.60;68.10
13721;DHT22;6932;51.438;5.470;2022-12-18T11:01:12;6.70;68.20
13721;DHT22;6932;51.438;5.470;2022-12-18T11:03:42;6.70;68.20
13721;DHT22;6932;51.438;5.470;2022-12-18T11:06:14;6.70;68.20
13721;DHT22;6932;51.438;5.470;2022-12-18T11:08:43;6.70;68.20
13721;DHT22;6932;51.438;5.470;2022-12-18T11:11:23;6.80;68.20
13721;DHT22;6932;51.438;5.470;2022-12-18T11:14:06;6.80;68.30
13721;DHT22;6932;51.438;5.470;2022-12-18T11:16:45;6.80;68.40
13721;DHT22;6932;51.438;5.470;2022-12-18T11:19:30;6.80;68.40
13721;DHT22;6932;51.438;5.470;2022-12-18T11:21:57;6.80;68.50
13721;DHT22;6932;51.438;5.470;2022-12-18T11:24:34;6.90;68.60
13721;DHT22;6932;51.438;5.470;2022-12-18T11:27:04;6.90;68.60
13721;DHT22;6932;51.438;5.470;2022-12-18T11:29:38;6.90;68.60
13721;DHT22;6932;51.438;5.470;2022-12-18T11:32:31;7.00;68.60
13721;DHT22;6932;51.438;5.470;2022-12-18T11:35:09;7.00;68.70
13721;DHT22;6932;51.438;5.470;2022-12-18T11:37:43;7.00;68.70
13721;DHT22;6932;51.438;5.470;2022-12-18T11:40:29;7.00;68.70
13721;DHT22;6932;51.438;5.470;2022-12-18T11:43:10;7.10;68.80
13721;DHT22;6932;51.438;5.470;2022-12-18T11:45:54;7.10;68.90
13721;DHT22;6932;51.438;5.470;2022-12-18T11:48:32;7.10;68.90
13721;DHT22;6932;51.438;5.470;2022-12-18T11:51:05;7.20;69.00
13721;DHT22;6932;51.438;5.470;2022-12-18T11:53:39;7.20;68.90
13721;DHT22;6932;51.438;5.470;2022-12-18T11:56:29;7.20;68.90
13721;DHT22;6932;51.438;5.470;2022-12-18T12:08:35;7.30;68.90
13721;DHT22;6932;51.438;5.470;2022-12-18T12:17:49;7.40;69.00
13721;DHT22;6932;51.438;5.470;2022-12-18T12:26:36;7.40;68.90
13721;DHT22;6932;51.438;5.470;2022-12-18T12:32:43;7.50;68.70
13721;DHT22;6932;51.438;5.470;2022-12-18T12:40:30;7.50;68.80
13721;DHT22;6932;51.438;5.470;2022-12-18T12:46:14;7.60;68.70
13721;DHT22;6932;51.438;5.470;2022-12-18T12:54:04;7.70;68.60
13721;DHT22;6932;51.438;5.470;2022-12-18T12:56:54;7.70;68.60
13721;DHT22;6932;51.438;5.470;2022-12-18T13:08:29;7.80;68.50
13721;DHT22;6932;51.438;5.470;2022-12-18T13:10:58;7.80;69.20
13721;DHT22;6932;51.438;5.470;2022-12-18T13:13:54;7.80;68.50
13721;DHT22;6932;51.438;5.470;2022-12-18T13:16:25;7.90;68.40
13721;DHT22;6932;51.438;5.470;2022-12-18T13:18:56;7.90;68.40
13721;DHT22;6932;51.438;5.470;2022-12-18T13:21:32;7.90;68.40
13721;DHT22;6932;51.438;5.470;2022-12-18T13:24:34;7.90;68.40
13721;DHT22;6932;51.438;5.470;2022-12-18T13:27:14;7.90;68.30
13721;DHT22;6932;51.438;5.470;2022-12-18T13:38:25;8.00;67.80
13721;DHT22;6932;51.438;5.470;2022-12-18T13:41:04;8.00;67.70
13721;DHT22;6932;51.438;5.470;2022-12-18T13:43:49;8.10;67.80
13721;DHT22;6932;51.438;5.470;2022-12-18T13:46:24;8.10;67.80
13721;DHT22;6932;51.438;5.470;2022-12-18T13:49:41;8.10;67.80
13721;DHT22;6932;51.438;5.470;2022-12-18T13:51:52;8.10;67.70
13721;DHT22;6932;51.438;5.470;2022-12-18T13:54:36;8.10;67.60
13721;DHT22;6932;51.438;5.470;2022-12-18T13:57:05;8.10;67.60
13721;DHT22;6932;51.438;5.470;2022-12-18T14:02:54;8.10;67.50
13721;DHT22;6932;51.438;5.470;2022-12-18T14:05:23;8.20;67.50
13721;DHT22;6932;51.438;5.470;2022-12-18T14:07:52;8.20;67.30
13721;DHT22;6932;51.438;5.470;2022-12-18T14:10:19;8.20;67.40
13721;DHT22;6932;51.438;5.470;2022-12-18T14:12:49;8.20;67.40
13721;DHT22;6932;51.438;5.470;2022-12-18T14:15:33;8.20;67.40
13721;DHT22;6932;51.438;5.470;2022-12-18T14:18:26;8.20;67.30
13721;DHT22;6932;51.438;5.470;2022-12-18T14:21:01;8.20;67.40
13721;DHT22;6932;51.438;5.470;2022-12-18T14:23:42;8.20;67.40
13721;DHT22;6932;51.438;5.470;2022-12-18T14:28:48;8.30;67.30
13721;DHT22;6932;51.438;5.470;2022-12-18T14:31:18;8.30;67.30
13721;DHT22;6932;51.438;5.470;2022-12-18T14:33:45;8.30;67.20
13721;DHT22;6932;51.438;5.470;2022-12-18T14:36:29;8.30;67.30
13721;DHT22;6932;51.438;5.470;2022-12-18T14:38:57;8.30;67.20
13721;DHT22;6932;51.438;5.470;2022-12-18T14:41:24;8.40;67.20
13721;DHT22;6932;51.438;5.470;2022-12-18T14:43:52;8.40;67.20
13721;DHT22;6932;51.438;5.470;2022-12-18T14:46:44;8.40;67.30
13721;DHT22;6932;51.438;5.470;2022-12-18T14:49:27;8.40;67.30
13721;DHT22;6932;51.438;5.470;2022-12-18T14:52:06;8.40;67.20
13721;DHT22;6932;51.438;5.470;2022-12-18T14:54:52;8.40;67.30
13721;DHT22;6932;51.438;5.470;2022-12-18T14:57:25;8.40;67.30
13721;DHT22;6932;51.438;5.470;2022-12-18T15:00:15;8.40;67.20
13721;DHT22;6932;51.438;5.470;2022-12-18T15:02:50;8.40;67.30
13721;DHT22;6932;51.438;5.470;2022-12-18T15:05:30;8.40;67.30
13721;DHT22;6932;51.438;5.470;2022-12-18T15:07:59;8.40;67.20
13721;DHT22;6932;51.438;5.470;2022-12-18T15:10:32;8.50;67.30
13721;DHT22;6932;51.438;5.470;2022-12-18T15:15:46;8.50;67.30
13721;DHT22;6932;51.438;5.470;2022-12-18T15:18:16;8.50;67.20
13721;DHT22;6932;51.438;5.470;2022-12-18T15:23:45;8.50;67.10
13721;DHT22;6932;51.438;5.470;2022-12-18T15:26:15;8.50;67.10
13721;DHT22;6932;51.438;5.470;2022-12-18T15:28:53;8.50;66.90
13721;DHT22;6932;51.438;5.470;2022-12-18T15:31:32;8.50;67.00
13721;DHT22;6932;51.438;5.470;2022-12-18T15:34:21;8.60;66.90
13721;DHT22;6932;51.438;5.470;2022-12-18T15:36:49;8.50;66.00
13721;DHT22;6932;51.438;5.470;2022-12-18T15:39:15;8.40;66.00
13721;DHT22;6932;51.438;5.470;2022-12-18T15:41:41;8.20;66.30
13721;DHT22;6932;51.438;5.470;2022-12-18T15:44:27;8.00;66.60
13721;DHT22;6932;51.438;5.470;2022-12-18T15:46:57;7.80;67.10
13721;DHT22;6932;51.438;5.470;2022-12-18T15:49:23;7.60;67.40
13721;DHT22;6932;51.438;5.470;2022-12-18T15:51:53;7.40;67.90
13721;DHT22;6932;51.438;5.470;2022-12-18T15:54:22;7.30;68.20
13721;DHT22;6932;51.438;5.470;2022-12-18T15:57:09;7.20;69.20
13721;DHT22;6932;51.438;5.470;2022-12-18T15:59:48;7.10;68.90
13721;DHT22;6932;51.438;5.470;2022-12-18T16:02:18;7.00;69.20
13721;DHT22;6932;51.438;5.470;2022-12-18T16:04:45;6.90;69.40
13721;DHT22;6932;51.438;5.470;2022-12-18T16:07:12;6.80;69.50
13721;DHT22;6932;51.438;5.470;2022-12-18T16:09:38;6.80;69.70
13721;DHT22;6932;51.438;5.470;2022-12-18T16:12:04;6.80;70.00
13721;DHT22;6932;51.438;5.470;2022-12-18T16:14:32;6.70;70.70
13721;DHT22;6932;51.438;5.470;2022-12-18T16:17:04;6.70;70.20
13721;DHT22;6932;51.438;5.470;2022-12-18T16:19:34;6.70;70.20
13721;DHT22;6932;51.438;5.470;2022-12-18T16:21:59;6.70;70.40
13721;DHT22;6932;51.438;5.470;2022-12-18T16:24:30;6.70;70.50
13721;DHT22;6932;51.438;5.470;2022-12-18T16:26:59;6.60;70.50
13721;DHT22;6932;51.438;5.470;2022-12-18T16:29:27;6.60;70.60
13721;DHT22;6932;51.438;5.470;2022-12-18T16:31:58;6.60;70.60
13721;DHT22;6932;51.438;5.470;2022-12-18T16:34:28;6.60;70.70
13721;DHT22;6932;51.438;5.470;2022-12-18T16:36:55;6.70;71.00
13721;DHT22;6932;51.438;5.470;2022-12-18T16:39:23;6.80;71.30
13721;DHT22;6932;51.438;5.470;2022-12-18T16:41:49;6.90;71.30
13721;DHT22;6932;51.438;5.470;2022-12-18T16:44:15;7.00;71.20
13721;DHT22;6932;51.438;5.470;2022-12-18T16:46:41;7.20;71.10
13721;DHT22;6932;51.438;5.470;2022-12-18T16:49:15;7.30;70.90
13721;DHT22;6932;51.438;5.470;2022-12-18T16:51:42;7.50;70.60
13721;DHT22;6932;51.438;5.470;2022-12-18T16:54:09;7.70;70.40
13721;DHT22;6932;51.438;5.470;2022-12-18T16:56:35;7.80;70.10
13721;DHT22;6932;51.438;5.470;2022-12-18T16:59:02;7.90;69.80
13721;DHT22;6932;51.438;5.470;2022-12-18T17:01:30;8.00;69.60
13721;DHT22;6932;51.438;5.470;2022-12-18T17:04:01;8.10;69.30
13721;DHT22;6932;51.438;5.470;2022-12-18T17:06:31;8.20;69.70
13721;DHT22;6932;51.438;5.470;2022-12-18T17:09:03;8.20;68.80
13721;DHT22;6932;51.438;5.470;2022-12-18T17:11:32;8.30;68.60
13721;DHT22;6932;51.438;5.470;2022-12-18T17:14:09;8.40;68.50
13721;DHT22;6932;51.438;5.470;2022-12-18T17:16:37;8.40;68.30
13721;DHT22;6932;51.438;5.470;2022-12-18T17:19:03;8.50;68.30
13721;DHT22;6932;51.438;5.470;2022-12-18T17:21:30;8.50;68.10
13721;DHT22;6932;51.438;5.470;2022-12-18T17:23:59;8.60;68.10
13721;DHT22;6932;51.438;5.470;2022-12-18T17:26:26;8.60;67.90
13721;DHT22;6932;51.438;5.470;2022-12-18T17:28:52;8.60;67.90
13721;DHT22;6932;51.438;5.470;2022-12-18T17:31:22;8.60;67.80
13721;DHT22;6932;51.438;5.470;2022-12-18T17:33:50;8.70;67.80
13721;DHT22;6932;51.438;5.470;2022-12-18T17:36:17;8.70;67.80
13721;DHT22;6932;51.438;5.470;2022-12-18T17:38:52;8.70;67.70
13721;DHT22;6932;51.438;5.470;2022-12-18T17:41:23;8.70;67.60
13721;DHT22;6932;51.438;5.470;2022-12-18T17:43:53;8.70;67.60
13721;DHT22;6932;51.438;5.470;2022-12-18T17:46:31;8.70;67.50
13721;DHT22;6932;51.438;5.470;2022-12-18T17:48:59;8.80;67.50
13721;DHT22;6932;51.438;5.470;2022-12-18T17:51:27;8.80;67.50
13721;DHT22;6932;51.438;5.470;2022-12-18T17:53:53;8.80;67.50
13721;DHT22;6932;51.438;5.470;2022-12-18T17:56:21;8.80;67.50
13721;DHT22;6932;51.438;5.470;2022-12-18T17:58:48;8.80;67.40
13721;DHT22;6932;51.438;5.470;2022-12-18T18:01:20;8.90;67.50
13721;DHT22;6932;51.438;5.470;2022-12-18T18:03:48;8.90;67.30
13721;DHT22;6932;51.438;5.470;2022-12-18T18:06:14;8.90;67.30
13721;DHT22;6932;51.438;5.470;2022-12-18T18:08:40;8.90;67.30
13721;DHT22;6932;51.438;5.470;2022-12-18T18:11:17;8.90;67.30
13721;DHT22;6932;51.438;5.470;2022-12-18T18:14:06;8.90;67.30
13721;DHT22;6932;51.438;5.470;2022-12-18T18:16:41;8.90;67.30
13721;DHT22;6932;51.438;5.470;2022-12-18T18:19:14;8.90;67.30
13721;DHT22;6932;51.438;5.470;2022-12-18T18:21:45;9.00;67.30
13721;DHT22;6932;51.438;5.470;2022-12-18T18:24:14;9.00;67.20
13721;DHT22;6932;51.438;5.470;2022-12-18T18:26:42;9.00;67.20
13721;DHT22;6932;51.438;5.470;2022-12-18T18:29:13;9.00;67.30
13721;DHT22;6932;51.438;5.470;2022-12-18T18:31:40;8.90;67.20
13721;DHT22;6932;51.438;5.470;2022-12-18T18:34:07;9.00;67.20
13721;DHT22;6932;51.438;5.470;2022-12-18T18:36:38;9.00;67.20
13721;DHT22;6932;51.438;5.470;2022-12-18T18:39:03;9.00;67.20
13721;DHT22;6932;51.438;5.470;2022-12-18T18:41:29;9.00;67.30
13721;DHT22;6932;51.438;5.470;2022-12-18T18:43:56;9.00;67.20